WARR/SUB METAR and TAF weather

Enter ICAO airport designator
Station Type Date Time Source
WARR METAR 2024/02/26 17:00 UTC NOAA

WARR 261700Z VRB01KT 5000 HZ FEW020 26/25 Q1009 NOSIG


Station Type Date Time Source
WARR Decoded METAR 2024/02/26 17:00 UTC NOAA

Station name not available
Feb 26, 2024 - 12:00 PM EST / 2024.02.26 1700 UTC
Wind: Variable at 1 MPH (1 KT):0
Visibility: 3 mile(s):0
Sky conditions: mostly clear
Weather: haze
Temperature: 78 F (26 C)
Dew Point: 77 F (25 C)
Relative Humidity: 94%
Pressure (altimeter): 29.80 in. Hg (1009 hPa)
ob: WARR 261700Z VRB01KT 5000 HZ FEW020 26/25 Q1009 NOSIG
cycle: 17

Station Type Date Time Source
WARR TAF 2024/02/26 18:09 UTC NOAA